Vreite — PC7692 — position and weather

sailwx.info

Track history (hours):
 
Tides and Currents Weather Stations Pressure Air Temp Water Temp Dewpoint Dewpoint Depression Visibility Wind Speed Wind Dir Waves Ship Positions

Vreite

Last reported at 2017-Sep-26 15:22 UTC. Time now 2017-Sep-26 18:36 UTC.
Position N 51°33' E 003°40'.

Length 13 m.

Type: Pleasure craft. MMSI: 244100689.

Date/timePositionNaut miles runAvg speedWind from/ knotsBaromVisibWave heightAir tempDewpointWater temp
2017-Sep-26 15:22N 51°33' E 003°40'1 1.8
2017-Sep-26 14:59N 51°34' E 003°39'1 2.8
2017-Sep-26 14:28N 51°35' E 003°38'0 0.1
2017-Sep-26 14:00N 51°35' E 003°38'0 0.0
2017-Sep-26 10:38N 51°35' E 003°38'1 4.4
2017-Sep-26 10:29N 51°34' E 003°38'2 2.7
2017-Sep-26 09:54N 51°33' E 003°40'0 0.0
2017-Sep-25 16:11N 51°33' E 003°40'0 0.1
2017-Sep-25 15:54N 51°33' E 003°40'1 2.1
2017-Sep-25 15:26N 51°33' E 003°40'3 4.5
2017-Sep-25 14:51N 51°30' E 003°38'1 2.8
2017-Sep-25 14:28N 51°30' E 003°37'2 4.1
2017-Sep-25 13:57N 51°28' E 003°36'1 1.6
2017-Sep-25 13:30N 51°27' E 003°35'1 1.4
2017-Sep-25 12:58N 51°26' E 003°36'1 0.0
2017-Sep-24 17:19N 51°26' E 003°35'0 0.0
2017-Sep-24 16:49N 51°26' E 003°35'0 0.7
2017-Sep-24 16:29N 51°26' E 003°34'2 4.4
2017-Sep-24 15:59N 51°26' E 003°31'3 5.6
2017-Sep-24 15:30N 51°25' E 003°27'3 5.8
2017-Sep-24 15:00N 51°25' E 003°22'3 6.9
2017-Sep-24 14:30N 51°24' E 003°17'3 6.3
2017-Sep-24 14:00N 51°23' E 003°12'3 6.7
2017-Sep-24 13:30N 51°22' E 003°07'3 5.4
2017-Sep-24 12:59N 51°20' E 003°03'2 5.0
2017-Sep-24 12:30N 51°19' E 003°00'2 3.8
2017-Sep-24 12:00N 51°18' E 002°58'2 4.6
2017-Sep-24 11:30N 51°16' E 002°55'2 2.9
2017-Sep-24 10:59N 51°14' E 002°55'1 1.1
2017-Sep-24 10:26N 51°14' E 002°55'  
2017-Sep-18 08:16N 49°45' W 000°56'2 8.2
2017-Sep-18 08:00N 49°45' W 000°59'4 8.3
2017-Sep-18 07:30N 49°44' W 001°05'4 8.3
2017-Sep-18 07:00N 49°44' W 001°12'4 7.1
2017-Sep-18 06:30N 49°44' W 001°17'4 8.3
2017-Sep-18 06:00N 49°45' W 001°24'5 9.5
2017-Sep-18 05:30N 49°43' W 001°30'4 7.7
2017-Sep-18 05:00N 49°41' W 001°35'2 4.5
2017-Sep-18 04:30N 49°39' W 001°37'0 0.0
2017-Sep-17 11:17N 49°39' W 001°37'0 0.4
2017-Sep-17 11:00N 49°39' W 001°37'0 0.3
2017-Sep-17 10:30N 49°39' W 001°37'0 0.1
2017-Sep-17 10:00N 49°39' W 001°37'2 3.4
2017-Sep-17 09:30N 49°40' W 001°39'2 4.2
2017-Sep-17 09:00N 49°42' W 001°41'2 4.3
2017-Sep-17 08:30N 49°43' W 001°43'2 4.6
2017-Sep-17 08:00N 49°45' W 001°46'3 5.1
2017-Sep-17 07:30N 49°46' W 001°50'3 5.6
2017-Sep-17 07:00N 49°46' W 001°54'  
Track history (hours):
 
Tides and Currents Weather Stations Pressure Air Temp Water Temp Dewpoint Dewpoint Depression Visibility Wind Speed Wind Dir Waves Ship Positions

Vreite

Last reported at 2017-Sep-26 15:22 UTC. Time now 2017-Sep-26 18:36 UTC.
Position N 51°33' E 003°40'.

Length 13 m.

Type: Pleasure craft. MMSI: 244100689.

Date/timePositionNaut miles runAvg speedWind from/ knotsBaromVisibWave heightAir tempDewpointWater temp
2017-Sep-26 15:22N 51°33' E 003°40'1 1.8
2017-Sep-26 14:59N 51°34' E 003°39'1 2.8
2017-Sep-26 14:28N 51°35' E 003°38'0 0.1
2017-Sep-26 14:00N 51°35' E 003°38'0 0.0
2017-Sep-26 10:38N 51°35' E 003°38'1 4.4
2017-Sep-26 10:29N 51°34' E 003°38'2 2.7
2017-Sep-26 09:54N 51°33' E 003°40'0 0.0
2017-Sep-25 16:11N 51°33' E 003°40'0 0.1
2017-Sep-25 15:54N 51°33' E 003°40'1 2.1
2017-Sep-25 15:26N 51°33' E 003°40'3 4.5
2017-Sep-25 14:51N 51°30' E 003°38'1 2.8
2017-Sep-25 14:28N 51°30' E 003°37'2 4.1
2017-Sep-25 13:57N 51°28' E 003°36'1 1.6
2017-Sep-25 13:30N 51°27' E 003°35'1 1.4
2017-Sep-25 12:58N 51°26' E 003°36'1 0.0
2017-Sep-24 17:19N 51°26' E 003°35'0 0.0
2017-Sep-24 16:49N 51°26' E 003°35'0 0.7
2017-Sep-24 16:29N 51°26' E 003°34'2 4.4
2017-Sep-24 15:59N 51°26' E 003°31'3 5.6
2017-Sep-24 15:30N 51°25' E 003°27'3 5.8
2017-Sep-24 15:00N 51°25' E 003°22'3 6.9
2017-Sep-24 14:30N 51°24' E 003°17'3 6.3
2017-Sep-24 14:00N 51°23' E 003°12'3 6.7
2017-Sep-24 13:30N 51°22' E 003°07'3 5.4
2017-Sep-24 12:59N 51°20' E 003°03'2 5.0
2017-Sep-24 12:30N 51°19' E 003°00'2 3.8
2017-Sep-24 12:00N 51°18' E 002°58'2 4.6
2017-Sep-24 11:30N 51°16' E 002°55'2 2.9
2017-Sep-24 10:59N 51°14' E 002°55'1 1.1
2017-Sep-24 10:26N 51°14' E 002°55'  
2017-Sep-18 08:16N 49°45' W 000°56'2 8.2
2017-Sep-18 08:00N 49°45' W 000°59'4 8.3
2017-Sep-18 07:30N 49°44' W 001°05'4 8.3
2017-Sep-18 07:00N 49°44' W 001°12'4 7.1
2017-Sep-18 06:30N 49°44' W 001°17'4 8.3
2017-Sep-18 06:00N 49°45' W 001°24'5 9.5
2017-Sep-18 05:30N 49°43' W 001°30'4 7.7
2017-Sep-18 05:00N 49°41' W 001°35'2 4.5
2017-Sep-18 04:30N 49°39' W 001°37'0 0.0
2017-Sep-17 11:17N 49°39' W 001°37'0 0.4
2017-Sep-17 11:00N 49°39' W 001°37'0 0.3
2017-Sep-17 10:30N 49°39' W 001°37'0 0.1
2017-Sep-17 10:00N 49°39' W 001°37'2 3.4
2017-Sep-17 09:30N 49°40' W 001°39'2 4.2
2017-Sep-17 09:00N 49°42' W 001°41'2 4.3
2017-Sep-17 08:30N 49°43' W 001°43'2 4.6
2017-Sep-17 08:00N 49°45' W 001°46'3 5.1
2017-Sep-17 07:30N 49°46' W 001°50'3 5.6
2017-Sep-17 07:00N 49°46' W 001°54'  

Dump ship's entire track history